createdAt,value
2023-04-18T00:00:27.459Z,7.60
2023-04-18T00:02:55.143Z,8.20
2023-04-18T00:05:25.144Z,6.90
2023-04-18T00:07:52.754Z,7.70
2023-04-18T00:10:19.503Z,7.37
2023-04-18T00:12:46.048Z,7.70
2023-04-18T00:15:12.771Z,7.70
2023-04-18T00:17:39.572Z,7.30
2023-04-18T00:20:10.700Z,7.80
2023-04-18T00:22:42.384Z,7.50
2023-04-18T00:25:10.481Z,7.97
2023-04-18T00:27:38.385Z,7.07
2023-04-18T00:30:06.464Z,7.60
2023-04-18T00:32:32.937Z,8.03
2023-04-18T00:34:59.419Z,8.70
2023-04-18T00:37:25.867Z,7.70
2023-04-18T00:39:53.900Z,8.00
2023-04-18T00:42:25.325Z,8.40
2023-04-18T00:44:51.812Z,9.03
2023-04-18T00:47:18.322Z,8.90
2023-04-18T00:49:45.554Z,8.83
2023-04-18T00:52:12.431Z,8.60
2023-04-18T00:54:40.707Z,9.13
2023-04-18T00:57:07.908Z,8.07
2023-04-18T00:59:35.535Z,8.33
2023-04-18T01:02:03.792Z,8.30
2023-04-18T01:04:32.614Z,8.70
2023-04-18T01:07:00.991Z,9.17
2023-04-18T01:09:28.077Z,9.10
2023-04-18T01:11:54.536Z,8.93
2023-04-18T01:14:21.145Z,9.63
2023-04-18T01:16:48.467Z,8.90
2023-04-18T01:19:15.802Z,9.77
2023-04-18T01:21:43.749Z,9.00
2023-04-18T01:24:15.128Z,8.73
2023-04-18T01:26:44.086Z,8.93
2023-04-18T01:29:11.207Z,8.60
2023-04-18T01:31:38.299Z,9.33
2023-04-18T01:34:05.962Z,8.83
2023-04-18T01:36:33.150Z,9.20
2023-04-18T01:39:00.077Z,8.60
2023-04-18T01:41:29.028Z,9.83
2023-04-18T01:43:55.477Z,9.47
2023-04-18T01:46:21.991Z,9.30
2023-04-18T01:48:48.509Z,9.40
2023-04-18T01:51:14.982Z,8.97
2023-04-18T01:53:41.839Z,9.00
2023-04-18T01:56:10.102Z,8.97
2023-04-18T01:58:37.061Z,10.00
2023-04-18T02:01:03.968Z,10.03
2023-04-18T02:03:30.730Z,10.33
2023-04-18T02:05:57.288Z,10.13
2023-04-18T02:08:23.858Z,9.47
2023-04-18T02:10:50.533Z,8.83
2023-04-18T02:13:16.953Z,9.20
2023-04-18T02:15:46.500Z,10.03
2023-04-18T02:18:12.978Z,10.63
2023-04-18T02:20:39.929Z,9.53
2023-04-18T02:23:06.943Z,8.87
2023-04-18T02:25:33.400Z,8.80
2023-04-18T02:28:00.010Z,9.70
2023-04-18T02:30:26.764Z,9.80
2023-04-18T02:32:54.441Z,9.90
2023-04-18T02:35:21.245Z,9.43
2023-04-18T02:37:47.701Z,8.50
2023-04-18T02:40:14.353Z,9.70
2023-04-18T02:42:40.808Z,9.20
2023-04-18T02:45:07.822Z,9.17
2023-04-18T02:47:47.017Z,8.83
2023-04-18T02:50:18.076Z,8.53
2023-04-18T02:52:44.600Z,8.90
2023-04-18T02:55:11.021Z,8.30
2023-04-18T02:57:37.566Z,9.30
2023-04-18T03:00:06.420Z,8.83
2023-04-18T03:02:33.021Z,8.80
2023-04-18T03:04:59.646Z,9.07
2023-04-18T03:07:26.400Z,9.80
2023-04-18T03:09:52.931Z,9.10
2023-04-18T03:12:19.466Z,8.83
2023-04-18T03:14:45.913Z,9.80
2023-04-18T03:17:12.491Z,9.77
2023-04-18T03:19:39.010Z,9.27
2023-04-18T03:22:05.981Z,9.60
2023-04-18T03:24:32.431Z,9.10
2023-04-18T03:27:00.502Z,9.27
2023-04-18T03:29:26.971Z,9.27
2023-04-18T03:31:53.420Z,9.00
2023-04-18T03:34:19.885Z,9.70
2023-04-18T03:36:48.012Z,9.57
2023-04-18T03:39:14.861Z,10.70
2023-04-18T03:41:41.389Z,10.03
2023-04-18T03:44:07.889Z,9.87
2023-04-18T03:46:35.174Z,9.50
2023-04-18T03:49:01.630Z,9.17
2023-04-18T03:51:33.694Z,9.00
2023-04-18T03:54:00.259Z,9.23
2023-04-18T03:56:26.966Z,9.53
2023-04-18T03:58:53.374Z,9.03
2023-04-18T04:01:19.787Z,9.27
2023-04-18T04:03:46.490Z,8.60
2023-04-18T04:06:13.274Z,9.13
2023-04-18T04:08:39.704Z,8.90
2023-04-18T04:11:06.170Z,9.33
2023-04-18T04:13:32.651Z,9.33
2023-04-18T04:15:59.322Z,8.80
2023-04-18T04:18:31.204Z,9.33
2023-04-18T04:20:59.127Z,8.50
2023-04-18T04:23:26.778Z,8.93
2023-04-18T04:25:54.426Z,9.00
2023-04-18T04:28:23.858Z,9.80
2023-04-18T04:30:50.892Z,8.73
2023-04-18T04:33:22.064Z,9.00
2023-04-18T04:35:49.694Z,8.63
2023-04-18T04:38:16.850Z,8.77
2023-04-18T04:40:43.342Z,7.90
2023-04-18T04:43:15.628Z,8.50
2023-04-18T04:45:43.537Z,8.73
2023-04-18T04:48:11.056Z,8.40
2023-04-18T04:50:40.571Z,8.93
2023-04-18T04:53:11.657Z,9.30
2023-04-18T04:55:38.824Z,9.13
2023-04-18T04:58:05.270Z,9.20
2023-04-18T05:00:31.752Z,8.93
2023-04-18T05:02:58.418Z,11.60
2023-04-18T05:05:25.009Z,11.60
2023-04-18T05:07:51.473Z,10.33
2023-04-18T05:10:17.912Z,10.10
2023-04-18T05:12:44.420Z,10.93
2023-04-18T05:15:11.168Z,12.00
2023-04-18T05:17:37.657Z,10.57
2023-04-18T05:20:05.389Z,10.53
2023-04-18T05:22:32.447Z,9.90
2023-04-18T05:24:58.865Z,9.50
2023-04-18T05:27:26.139Z,9.57
2023-04-18T05:29:52.722Z,9.73
2023-04-18T05:32:19.301Z,10.57
2023-04-18T05:34:45.964Z,10.90
2023-04-18T05:37:12.414Z,10.47
2023-04-18T05:39:40.096Z,10.70
2023-04-18T05:42:06.551Z,11.43
2023-04-18T05:44:33.032Z,13.63
2023-04-18T05:46:59.567Z,12.43
2023-04-18T05:49:26.040Z,12.73
2023-04-18T05:51:52.991Z,14.70
2023-04-18T05:54:21.457Z,12.60
2023-04-18T05:56:48.247Z,13.17
2023-04-18T05:59:14.712Z,12.90
2023-04-18T06:01:41.264Z,12.67
2023-04-18T06:04:08.620Z,11.17
2023-04-18T06:06:35.831Z,12.20
2023-04-18T06:09:02.351Z,10.93
2023-04-18T06:11:28.868Z,11.57
2023-04-18T06:13:56.049Z,11.60
2023-04-18T06:16:22.728Z,11.50
2023-04-18T06:18:49.195Z,11.23
2023-04-18T06:21:15.801Z,11.40
2023-04-18T06:23:42.270Z,13.40
2023-04-18T06:26:09.321Z,11.30
2023-04-18T06:28:35.864Z,11.70
2023-04-18T06:31:02.584Z,11.57
2023-04-18T06:33:29.080Z,11.63
2023-04-18T06:35:55.780Z,11.83
2023-04-18T06:38:22.697Z,11.33
2023-04-18T06:40:49.135Z,10.33
2023-04-18T06:43:15.674Z,10.90
2023-04-18T06:45:42.316Z,10.10
2023-04-18T06:48:10.633Z,10.27
2023-04-18T06:50:37.573Z,9.73
2023-04-18T06:53:04.105Z,11.33
2023-04-18T06:55:30.742Z,10.30
2023-04-18T06:57:57.300Z,9.67
2023-04-18T07:00:23.791Z,10.10
2023-04-18T07:02:50.544Z,10.43
2023-04-18T07:05:17.277Z,10.30
2023-04-18T07:07:43.751Z,12.10
2023-04-18T07:10:11.412Z,10.57
2023-04-18T07:12:37.952Z,8.77
2023-04-18T07:15:04.843Z,9.17
2023-04-18T07:17:31.697Z,10.23
2023-04-18T07:19:58.585Z,9.13
2023-04-18T07:22:25.095Z,8.90
2023-04-18T07:24:51.578Z,9.50
2023-04-18T07:27:18.069Z,9.80
2023-04-18T07:29:44.511Z,8.53
2023-04-18T07:32:11.092Z,10.03
2023-04-18T07:34:37.667Z,9.70
2023-04-18T07:37:04.294Z,9.10
2023-04-18T07:39:35.787Z,9.63
2023-04-18T07:42:03.970Z,9.03
2023-04-18T07:44:30.746Z,10.93
2023-04-18T07:46:57.226Z,9.33
2023-04-18T07:49:23.766Z,9.87
2023-04-18T07:51:50.243Z,10.23
2023-04-18T07:54:16.764Z,9.03
2023-04-18T07:56:43.243Z,10.20
2023-04-18T07:59:09.695Z,10.13
2023-04-18T08:01:36.147Z,10.10
2023-04-18T08:04:02.732Z,10.00
2023-04-18T08:06:29.412Z,10.00
2023-04-18T08:08:55.949Z,9.33
2023-04-18T08:11:22.521Z,9.50
2023-04-18T08:13:49.001Z,10.73
2023-04-18T08:16:17.471Z,10.00
2023-04-18T08:18:44.203Z,10.67
2023-04-18T08:21:10.766Z,10.20
2023-04-18T08:23:37.248Z,9.83
2023-04-18T08:26:03.852Z,9.87
2023-04-18T08:28:30.261Z,10.37
2023-04-18T08:30:56.731Z,9.90
2023-04-18T08:33:24.053Z,10.00
2023-04-18T08:35:53.684Z,9.50
2023-04-18T08:38:20.276Z,9.77
2023-04-18T08:40:47.059Z,10.10
2023-04-18T08:43:14.991Z,9.13
2023-04-18T08:45:42.540Z,10.80
2023-04-18T08:48:16.237Z,9.40
2023-04-18T08:50:43.550Z,10.00
2023-04-18T08:53:10.973Z,10.13
2023-04-18T08:55:38.063Z,9.70
2023-04-18T08:58:07.885Z,9.87
2023-04-18T09:00:35.308Z,10.83
2023-04-18T09:03:02.932Z,9.97
2023-04-18T09:05:29.827Z,10.03
2023-04-18T09:07:56.771Z,9.87
2023-04-18T09:10:30.901Z,11.20
2023-04-18T09:12:58.709Z,10.30
2023-04-18T09:15:29.669Z,10.53
2023-04-18T09:17:58.801Z,10.70
2023-04-18T09:20:51.872Z,10.60
2023-04-18T09:23:25.969Z,11.10
2023-04-18T09:25:53.256Z,11.23
2023-04-18T09:28:33.465Z,12.03
2023-04-18T09:31:15.179Z,11.23
2023-04-18T09:33:52.765Z,11.10
2023-04-18T09:36:31.211Z,11.00
2023-04-18T09:38:57.802Z,12.13
2023-04-18T09:41:24.554Z,12.87
2023-04-18T09:44:10.926Z,12.33
2023-04-18T09:46:40.076Z,12.60
2023-04-18T09:49:07.904Z,12.07
2023-04-18T09:51:36.618Z,12.23
2023-04-18T09:54:04.463Z,12.67
2023-04-18T09:56:34.430Z,12.70
2023-04-18T09:59:09.152Z,13.07
2023-04-18T10:01:36.533Z,11.40
2023-04-18T10:04:06.655Z,12.40
2023-04-18T10:06:39.680Z,12.63
2023-04-18T10:09:09.329Z,12.37
2023-04-18T10:11:36.461Z,12.23
2023-04-18T10:14:06.909Z,12.03
2023-04-18T10:16:34.973Z,11.77
2023-04-18T10:19:26.203Z,12.27
2023-04-18T10:21:53.437Z,11.10
2023-04-18T10:24:38.889Z,12.33
2023-04-18T10:27:05.340Z,11.97
2023-04-18T10:30:01.341Z,11.90
2023-04-18T10:32:28.080Z,12.20
2023-04-18T10:34:54.762Z,12.60
2023-04-18T10:37:21.329Z,11.67
2023-04-18T10:39:53.545Z,10.40
2023-04-18T10:42:45.559Z,10.50
2023-04-18T10:45:22.976Z,10.60
2023-04-18T10:47:50.267Z,11.83
2023-04-18T10:50:17.724Z,11.13
2023-04-18T10:52:44.831Z,10.77
2023-04-18T10:55:31.845Z,12.30
2023-04-18T10:57:59.097Z,11.73
2023-04-18T11:00:26.232Z,11.47
2023-04-18T11:02:56.196Z,12.50
2023-04-18T11:05:25.338Z,12.03
2023-04-18T11:07:52.292Z,11.60
2023-04-18T11:10:26.714Z,11.67
2023-04-18T11:12:55.206Z,10.53
2023-04-18T11:15:24.270Z,12.27
2023-04-18T11:18:02.091Z,11.20
2023-04-18T11:20:36.915Z,10.93
2023-04-18T11:23:03.787Z,11.77
2023-04-18T11:25:32.346Z,10.30
2023-04-18T11:28:00.196Z,10.43
2023-04-18T11:30:27.247Z,10.37
2023-04-18T11:32:55.023Z,10.97
2023-04-18T11:35:21.557Z,10.97
2023-04-18T11:37:50.254Z,10.03
2023-04-18T11:40:16.726Z,11.63
2023-04-18T11:42:43.249Z,10.90
2023-04-18T11:45:11.689Z,11.70
2023-04-18T11:47:38.923Z,11.10
2023-04-18T11:50:07.981Z,10.40
2023-04-18T11:52:36.077Z,10.33
2023-04-18T11:55:24.760Z,10.87
2023-04-18T11:57:53.742Z,11.27
2023-04-18T12:00:31.525Z,11.47
2023-04-18T12:02:59.303Z,11.00
2023-04-18T12:05:37.230Z,11.60
2023-04-18T12:08:14.129Z,10.57
2023-04-18T12:10:51.493Z,12.10
2023-04-18T12:13:19.298Z,12.10
2023-04-18T12:15:46.849Z,11.10
2023-04-18T12:18:15.237Z,11.10
2023-04-18T12:20:50.307Z,9.70
2023-04-18T12:23:32.160Z,10.43
2023-04-18T12:26:12.502Z,10.73
2023-04-18T12:28:39.047Z,10.30
2023-04-18T12:31:07.203Z,9.90
2023-04-18T12:33:35.769Z,11.43
2023-04-18T12:36:03.046Z,11.20
2023-04-18T12:38:29.548Z,11.13
2023-04-18T12:40:56.011Z,11.23
2023-04-18T12:43:22.487Z,12.10
2023-04-18T12:45:49.475Z,10.03
2023-04-18T12:48:16.063Z,11.47
2023-04-18T12:50:42.504Z,10.63
2023-04-18T12:53:08.940Z,11.67
2023-04-18T12:55:36.259Z,10.40
2023-04-18T12:58:02.841Z,12.10
2023-04-18T13:00:31.397Z,12.70
2023-04-18T13:02:58.868Z,12.10
2023-04-18T13:05:29.895Z,11.73
2023-04-18T13:08:15.128Z,12.53
2023-04-18T13:10:42.574Z,11.90
2023-04-18T13:13:09.030Z,11.37
2023-04-18T13:15:36.243Z,12.53
2023-04-18T13:18:06.080Z,11.97
2023-04-18T13:20:34.027Z,11.70
2023-04-18T13:23:02.326Z,12.30
2023-04-18T13:25:28.875Z,12.50
2023-04-18T13:27:56.255Z,11.63
2023-04-18T13:30:22.801Z,11.87
2023-04-18T13:32:49.322Z,10.90
2023-04-18T13:35:16.049Z,11.63
2023-04-18T13:37:42.828Z,11.13
2023-04-18T13:40:09.583Z,11.70
2023-04-18T13:42:37.195Z,10.93
2023-04-18T13:45:04.095Z,10.50
2023-04-18T13:47:30.652Z,9.97
2023-04-18T13:49:57.858Z,10.83
2023-04-18T13:52:25.497Z,10.23
2023-04-18T13:54:51.935Z,10.37
2023-04-18T13:57:18.431Z,10.50
2023-04-18T13:59:44.984Z,12.27
2023-04-18T14:02:11.624Z,12.00
2023-04-18T14:04:38.380Z,12.00
2023-04-18T14:07:06.334Z,12.17
2023-04-18T14:09:33.015Z,11.13
2023-04-18T14:11:59.699Z,11.13
2023-04-18T14:14:26.360Z,13.03
2023-04-18T14:16:53.730Z,11.43
2023-04-18T14:19:20.305Z,11.50
2023-04-18T14:21:47.807Z,11.67
2023-04-18T14:24:14.393Z,12.27
2023-04-18T14:26:40.948Z,10.90
2023-04-18T14:29:07.392Z,10.53
2023-04-18T14:31:33.917Z,10.10
2023-04-18T14:34:00.486Z,11.10
2023-04-18T14:36:27.659Z,11.20
2023-04-18T14:38:55.025Z,10.90
2023-04-18T14:41:21.596Z,11.00
2023-04-18T14:43:48.372Z,10.03
2023-04-18T14:46:18.301Z,9.87
2023-04-18T14:48:46.595Z,9.30
2023-04-18T14:51:13.118Z,9.40
2023-04-18T14:53:39.643Z,8.83
2023-04-18T14:56:06.472Z,10.07
2023-04-18T14:58:32.976Z,10.47
2023-04-18T15:00:59.443Z,8.60
2023-04-18T15:03:26.086Z,10.13
2023-04-18T15:05:53.213Z,9.30
2023-04-18T15:08:19.722Z,9.90
2023-04-18T15:10:47.562Z,10.10
2023-04-18T15:13:14.159Z,9.30
2023-04-18T15:15:41.036Z,9.20
2023-04-18T15:18:08.550Z,10.50
2023-04-18T15:20:37.108Z,9.00
2023-04-18T15:23:03.729Z,9.60
2023-04-18T15:25:30.934Z,9.50
2023-04-18T15:27:58.335Z,8.67
2023-04-18T15:30:25.301Z,9.53
2023-04-18T15:32:52.127Z,9.83
2023-04-18T15:35:18.904Z,9.20
2023-04-18T15:37:45.366Z,9.90
2023-04-18T15:40:16.068Z,8.77
2023-04-18T15:42:43.556Z,9.03
2023-04-18T15:45:10.998Z,9.40
2023-04-18T15:47:38.697Z,9.13
2023-04-18T15:50:05.887Z,9.17
2023-04-18T15:52:32.549Z,9.83
2023-04-18T15:54:59.115Z,9.57
2023-04-18T15:57:25.712Z,10.03
2023-04-18T15:59:52.342Z,10.70
2023-04-18T16:02:18.924Z,11.37
2023-04-18T16:04:45.494Z,11.50
2023-04-18T16:07:12.181Z,10.53
2023-04-18T16:09:38.770Z,10.23
2023-04-18T16:12:07.153Z,10.73
2023-04-18T16:14:37.856Z,10.83
2023-04-18T16:17:08.681Z,10.60
2023-04-18T16:25:08.326Z,11.07
2023-04-18T16:27:34.811Z,11.17
2023-04-18T16:30:05.513Z,10.10
2023-04-18T16:32:32.068Z,10.13
2023-04-18T16:34:58.573Z,10.47
2023-04-18T16:37:25.307Z,11.27
2023-04-18T16:39:51.736Z,10.43
2023-04-18T16:42:18.259Z,11.30
2023-04-18T16:44:45.304Z,10.63
2023-04-18T16:47:11.811Z,11.50
2023-04-18T16:49:38.552Z,10.97
2023-04-18T16:52:05.088Z,10.57
2023-04-18T16:54:31.517Z,10.90
2023-04-18T16:56:58.083Z,11.00
2023-04-18T16:59:24.560Z,11.27
2023-04-18T17:01:51.230Z,10.17
2023-04-18T17:04:17.972Z,11.53
2023-04-18T17:06:44.736Z,10.83
2023-04-18T17:09:13.535Z,10.33
2023-04-18T17:11:41.327Z,11.50
2023-04-18T17:14:08.947Z,10.90
2023-04-18T17:16:39.882Z,11.50
2023-04-18T17:19:06.652Z,10.73
2023-04-18T17:21:34.311Z,10.50
2023-04-18T17:24:03.617Z,12.20
2023-04-18T17:26:31.006Z,9.83
2023-04-18T17:28:57.500Z,11.03
2023-04-18T17:31:24.079Z,11.30
2023-04-18T17:33:50.896Z,10.70
2023-04-18T17:36:17.424Z,11.47
2023-04-18T17:38:49.926Z,10.90
2023-04-18T17:41:18.252Z,11.10
2023-04-18T17:43:45.772Z,11.50
2023-04-18T17:46:13.369Z,11.20
2023-04-18T17:48:40.193Z,11.97
2023-04-18T17:51:06.680Z,11.77
2023-04-18T17:53:33.281Z,12.90
2023-04-18T17:55:59.785Z,12.67
2023-04-18T17:58:26.628Z,12.90
2023-04-18T18:00:53.501Z,12.27
2023-04-18T18:03:20.421Z,13.40
2023-04-18T18:05:48.726Z,12.20
2023-04-18T18:08:15.216Z,10.67
2023-04-18T18:10:42.540Z,11.80
2023-04-18T18:13:08.994Z,12.30
2023-04-18T18:15:35.578Z,11.70
2023-04-18T18:18:02.130Z,13.07
2023-04-18T18:20:29.285Z,11.30
2023-04-18T18:22:55.797Z,14.23
2023-04-18T18:25:22.292Z,12.70
2023-04-18T18:27:49.381Z,15.20
2023-04-18T18:30:16.055Z,15.63
2023-04-18T18:32:43.023Z,14.50
2023-04-18T18:35:09.609Z,12.37
2023-04-18T18:37:36.132Z,14.07
2023-04-18T18:40:04.906Z,13.20
2023-04-18T18:42:31.382Z,14.17
2023-04-18T18:44:57.960Z,13.30
2023-04-18T18:47:25.548Z,13.07
2023-04-18T18:49:52.125Z,13.40
2023-04-18T18:52:18.630Z,13.13
2023-04-18T18:54:45.117Z,11.80
2023-04-18T18:57:11.685Z,13.13
2023-04-18T18:59:38.290Z,12.30
2023-04-18T19:02:04.865Z,12.60
2023-04-18T19:04:31.518Z,12.90
2023-04-18T19:06:58.228Z,12.63
2023-04-18T19:09:24.721Z,12.30
2023-04-18T19:11:51.249Z,13.77
2023-04-18T19:14:17.676Z,21.20
2023-04-18T19:16:44.302Z,17.50
2023-04-18T19:19:11.225Z,13.10
2023-04-18T19:21:39.687Z,12.80
2023-04-18T19:24:06.506Z,13.33
2023-04-18T19:26:33.024Z,14.03
2023-04-18T19:28:59.631Z,13.13
2023-04-18T19:31:26.242Z,12.70
2023-04-18T19:33:52.731Z,13.03
2023-04-18T19:36:19.288Z,13.30
2023-04-18T19:38:45.804Z,12.90
2023-04-18T19:41:12.289Z,13.20
2023-04-18T19:43:40.284Z,12.30
2023-04-18T19:46:06.775Z,12.37
2023-04-18T19:48:33.323Z,13.03
2023-04-18T19:51:00.138Z,14.17
2023-04-18T19:53:26.633Z,14.03
2023-04-18T19:55:55.055Z,14.70
2023-04-18T19:58:44.969Z,13.40
2023-04-18T20:01:13.359Z,12.87
2023-04-18T20:03:41.021Z,12.60
2023-04-18T20:06:08.855Z,12.57
2023-04-18T20:08:38.064Z,12.83
2023-04-18T20:11:08.102Z,13.07
2023-04-18T20:13:36.757Z,13.07
2023-04-18T20:16:04.661Z,11.97
2023-04-18T20:18:32.356Z,13.80
2023-04-18T20:20:58.965Z,12.93
2023-04-18T20:23:25.866Z,11.87
2023-04-18T20:25:52.722Z,12.60
2023-04-18T20:28:19.242Z,12.53
2023-04-18T20:30:45.925Z,12.00
2023-04-18T20:33:12.419Z,12.73
2023-04-18T20:35:39.211Z,12.70
2023-04-18T20:38:07.380Z,16.07
2023-04-18T20:40:35.035Z,13.30
2023-04-18T20:43:03.197Z,12.50
2023-04-18T20:45:37.499Z,14.87
2023-04-18T20:48:04.895Z,12.13
2023-04-18T20:50:31.711Z,12.33
2023-04-18T20:53:00.426Z,12.40
2023-04-18T20:55:27.320Z,11.83
2023-04-18T20:57:53.838Z,13.33
2023-04-18T21:00:20.597Z,11.70
2023-04-18T21:02:47.193Z,11.37
2023-04-18T21:05:13.808Z,13.40
2023-04-18T21:07:40.280Z,12.37
2023-04-18T21:10:07.269Z,12.30
2023-04-18T21:12:33.857Z,14.87
2023-04-18T21:15:00.462Z,14.40
2023-04-18T21:17:27.214Z,12.23
2023-04-18T21:19:55.778Z,12.00
2023-04-18T21:22:22.248Z,13.00
2023-04-18T21:24:49.258Z,11.90
2023-04-18T21:27:16.284Z,11.83
2023-04-18T21:29:42.728Z,12.23
2023-04-18T21:32:09.241Z,12.10
2023-04-18T21:34:36.193Z,13.03
2023-04-18T21:37:02.714Z,11.80
2023-04-18T21:39:29.204Z,12.10
2023-04-18T21:41:55.676Z,11.97
2023-04-18T21:44:22.076Z,17.40
2023-04-18T21:46:48.521Z,12.87
2023-04-18T21:49:15.341Z,13.20
2023-04-18T21:51:41.900Z,12.07
2023-04-18T21:54:08.443Z,12.00
2023-04-18T21:56:34.898Z,12.50
2023-04-18T21:59:01.370Z,12.30
2023-04-18T22:01:27.901Z,13.17
2023-04-18T22:03:54.738Z,12.70
2023-04-18T22:06:23.088Z,12.60
2023-04-18T22:08:50.033Z,12.20
2023-04-18T22:11:16.483Z,13.03
2023-04-18T22:13:45.030Z,12.43
2023-04-18T22:16:11.896Z,12.80
2023-04-18T22:18:38.359Z,14.43
2023-04-18T22:21:04.905Z,12.30
2023-04-18T22:23:31.623Z,13.50
2023-04-18T22:25:58.369Z,13.77
2023-04-18T22:28:25.113Z,12.93
2023-04-18T22:30:51.634Z,13.20
2023-04-18T22:33:18.329Z,14.33
2023-04-18T22:35:46.060Z,12.97
2023-04-18T22:38:12.529Z,14.20
2023-04-18T22:40:39.038Z,14.20
2023-04-18T22:43:05.567Z,13.43
2023-04-18T22:45:33.813Z,13.43
2023-04-18T22:48:00.989Z,13.17
2023-04-18T22:50:27.476Z,13.90
2023-04-18T22:52:53.909Z,14.10
2023-04-18T22:55:20.465Z,13.83
2023-04-18T22:57:46.989Z,13.97
2023-04-18T23:00:14.434Z,14.13
2023-04-18T23:02:41.640Z,13.63
2023-04-18T23:05:10.640Z,14.07
2023-04-18T23:07:37.121Z,13.63
2023-04-18T23:10:07.308Z,13.00
2023-04-18T23:12:33.870Z,14.77
2023-04-18T23:15:00.467Z,13.90
2023-04-18T23:17:26.991Z,13.10
2023-04-18T23:19:53.507Z,13.63
2023-04-18T23:22:20.567Z,14.00
2023-04-18T23:24:46.990Z,14.00
2023-04-18T23:27:13.379Z,14.07
2023-04-18T23:29:39.797Z,14.30
2023-04-18T23:32:06.712Z,15.13
2023-04-18T23:34:33.257Z,14.30
2023-04-18T23:37:00.770Z,12.90
2023-04-18T23:39:27.256Z,13.67
2023-04-18T23:41:53.770Z,13.10
2023-04-18T23:44:20.387Z,14.83
2023-04-18T23:46:47.429Z,14.43
2023-04-18T23:49:14.234Z,13.53
2023-04-18T23:51:40.692Z,13.17
2023-04-18T23:54:07.551Z,14.50
2023-04-18T23:56:34.505Z,13.43
2023-04-18T23:59:00.965Z,14.50
